createdAt,value
2023-03-21T00:00:16.639Z,15
2023-03-21T00:01:33.632Z,15
2023-03-21T00:02:50.719Z,15
2023-03-21T00:04:07.701Z,14.9
2023-03-21T00:05:24.666Z,14.9
2023-03-21T00:06:41.648Z,14.9
2023-03-21T00:08:01.014Z,14.9
2023-03-21T00:09:15.643Z,14.8
2023-03-21T00:10:39.765Z,14.8
2023-03-21T00:11:49.640Z,14.7
2023-03-21T00:13:06.710Z,14.5
2023-03-21T00:14:23.689Z,14.5
2023-03-21T00:15:46.256Z,14.4
2023-03-21T00:16:57.658Z,14.4
2023-03-21T00:18:14.715Z,14.4
2023-03-21T00:19:31.671Z,14.5
2023-03-21T00:20:48.659Z,14.6
2023-03-21T00:22:08.344Z,14.7
2023-03-21T00:23:22.745Z,14.7
2023-03-21T00:24:39.697Z,14.7
2023-03-21T00:25:56.671Z,14.5
2023-03-21T00:27:39.662Z,14.4
2023-03-21T00:28:30.686Z,14.1
2023-03-21T00:29:47.671Z,13.9
2023-03-21T00:31:04.692Z,13.8
2023-03-21T00:32:21.762Z,13.7
2023-03-21T00:33:38.722Z,13.7
2023-03-21T00:35:26.053Z,13.7
2023-03-21T00:36:13.071Z,13.8
2023-03-21T00:37:29.696Z,13.9
2023-03-21T00:38:46.774Z,14
2023-03-21T00:40:04.253Z,14.2
2023-03-21T00:41:34.947Z,14.3
2023-03-21T00:42:37.733Z,14.4
2023-03-21T00:43:54.740Z,14.5
2023-03-21T00:45:11.705Z,14.5
2023-03-21T00:46:36.321Z,14.5
2023-03-21T00:47:45.835Z,14.5
2023-03-21T00:49:02.779Z,14.6
2023-03-21T00:50:19.707Z,14.6
2023-03-21T00:51:36.709Z,14.7
2023-03-21T00:52:53.703Z,14.7
2023-03-21T00:54:10.778Z,14.8
2023-03-21T00:55:27.732Z,14.8
2023-03-21T00:56:44.736Z,14.8
2023-03-21T00:58:02.702Z,14.8
2023-03-21T00:59:18.740Z,14.9
2023-03-21T01:00:35.724Z,14.9
2023-03-21T01:01:52.759Z,15
2023-03-21T01:03:21.661Z,15
2023-03-21T01:04:26.826Z,15
2023-03-21T01:05:43.762Z,15
2023-03-21T01:07:00.734Z,15
2023-03-21T01:08:25.345Z,15
2023-03-21T01:09:34.759Z,14.9
2023-03-21T01:10:51.798Z,14.8
2023-03-21T01:12:08.771Z,14.6
2023-03-21T01:13:25.763Z,14.4
2023-03-21T01:14:42.743Z,14.2
2023-03-21T01:15:59.815Z,14.1
2023-03-21T01:17:16.756Z,14.1
2023-03-21T01:18:33.754Z,14.1
2023-03-21T01:19:52.359Z,14.2
2023-03-21T01:21:07.840Z,14.3
2023-03-21T01:22:24.749Z,14.5
2023-03-21T01:23:41.752Z,14.5
2023-03-21T01:25:05.871Z,14.6
2023-03-21T01:26:15.820Z,14.5
2023-03-21T01:27:32.767Z,14.4
2023-03-21T01:28:49.788Z,14.3
2023-03-21T01:30:14.252Z,14.1
2023-03-21T01:31:23.847Z,14
2023-03-21T01:32:40.789Z,13.9
2023-03-21T01:33:57.758Z,13.7
2023-03-21T01:35:14.820Z,13.6
2023-03-21T01:36:31.812Z,13.5
2023-03-21T01:37:48.770Z,13.4
2023-03-21T01:39:05.765Z,13.4
2023-03-21T01:40:22.862Z,13.3
2023-03-21T01:41:43.255Z,13.4
2023-03-21T01:42:56.781Z,13.3
2023-03-21T01:44:13.774Z,13.3
2023-03-21T01:45:30.822Z,13.2
2023-03-21T01:46:57.276Z,13.1
2023-03-21T01:48:04.801Z,13.1
2023-03-21T01:49:21.780Z,13.1
2023-03-21T01:50:38.816Z,13.2
2023-03-21T01:51:58.622Z,13.2
2023-03-21T01:53:12.819Z,13.1
2023-03-21T01:54:29.805Z,13
2023-03-21T01:55:46.846Z,13.1
2023-03-21T01:57:03.806Z,13
2023-03-21T01:58:20.788Z,13
2023-03-21T01:59:37.794Z,13
2023-03-21T02:00:54.867Z,13.1
2023-03-21T02:02:11.837Z,13.2
2023-03-21T02:03:35.588Z,13.4
2023-03-21T02:04:45.805Z,13.5
2023-03-21T02:06:03.306Z,13.6
2023-03-21T02:07:19.822Z,13.7
2023-03-21T02:08:39.753Z,13.6
2023-03-21T02:09:53.820Z,13.6
2023-03-21T02:11:10.876Z,13.6
2023-03-21T02:12:27.815Z,13.6
2023-03-21T02:13:44.825Z,13.5
2023-03-21T02:15:01.847Z,13.6
2023-03-21T02:16:18.948Z,13.5
2023-03-21T02:17:35.852Z,13.5
2023-03-21T02:18:52.870Z,13.4
2023-03-21T02:20:09.902Z,13.3
2023-03-21T02:21:26.862Z,13.3
2023-03-21T02:22:43.830Z,13.3
2023-03-21T02:24:00.951Z,13.3
2023-03-21T02:25:22.663Z,13.2
2023-03-21T02:26:41.629Z,13.2
2023-03-21T02:27:51.841Z,13.2
2023-03-21T02:29:08.896Z,13.2
2023-03-21T02:30:29.581Z,13.2
2023-03-21T02:31:42.904Z,13.1
2023-03-21T02:32:59.860Z,13
2023-03-21T02:34:16.875Z,12.9
2023-03-21T02:35:37.065Z,12.9
2023-03-21T02:36:50.958Z,12.9
2023-03-21T02:38:07.849Z,12.8
2023-03-21T02:39:24.859Z,12.7
2023-03-21T02:40:41.864Z,12.7
2023-03-21T02:41:58.915Z,12.7
2023-03-21T02:43:22.836Z,12.6
2023-03-21T02:44:32.933Z,12.6
2023-03-21T02:45:49.998Z,12.7
2023-03-21T02:47:07.083Z,12.8
2023-03-21T02:48:28.031Z,12.9
2023-03-21T02:49:40.877Z,12.9
2023-03-21T02:50:57.873Z,12.9
2023-03-21T02:52:23.096Z,13.1
2023-03-21T02:53:31.881Z,13
2023-03-21T02:54:49.021Z,13
2023-03-21T02:56:05.884Z,12.9
2023-03-21T02:57:25.499Z,13
2023-03-21T02:58:39.919Z,13
2023-03-21T03:00:00.388Z,13
2023-03-21T03:01:13.941Z,13
2023-03-21T03:02:30.914Z,12.9
2023-03-21T03:03:47.940Z,12.9
2023-03-21T03:05:11.749Z,12.9
2023-03-21T03:06:21.950Z,12.9
2023-03-21T03:07:38.910Z,12.8
2023-03-21T03:09:02.076Z,12.8
2023-03-21T03:10:12.907Z,12.8
2023-03-21T03:11:29.912Z,12.8
2023-03-21T03:12:46.941Z,12.7
2023-03-21T03:14:15.812Z,12.8
2023-03-21T03:15:20.912Z,12.8
2023-03-21T03:16:38.306Z,12.8
2023-03-21T03:17:54.911Z,12.9
2023-03-21T03:19:11.916Z,13.2
2023-03-21T03:20:28.918Z,13.3
2023-03-21T03:21:45.955Z,13.5
2023-03-21T03:23:02.936Z,13.7
2023-03-21T03:24:19.928Z,13.8
2023-03-21T03:25:42.715Z,13.6
2023-03-21T03:26:53.924Z,13.5
2023-03-21T03:28:10.967Z,13.3
2023-03-21T03:29:27.929Z,13.2
2023-03-21T03:30:57.337Z,13.1
2023-03-21T03:32:01.989Z,13
2023-03-21T03:33:18.970Z,12.9
2023-03-21T03:34:35.950Z,12.8
2023-03-21T03:36:04.338Z,12.8
2023-03-21T03:37:09.936Z,12.8
2023-03-21T03:38:26.947Z,12.9
2023-03-21T03:39:44.002Z,13
2023-03-21T03:41:00.979Z,13
2023-03-21T03:42:27.861Z,13.1
2023-03-21T03:43:34.998Z,13.1
2023-03-21T03:44:52.034Z,13.1
2023-03-21T03:46:09.027Z,13
2023-03-21T03:47:32.685Z,12.9
2023-03-21T03:48:42.956Z,12.9
2023-03-21T03:49:59.981Z,12.9
2023-03-21T03:51:17.011Z,12.8
2023-03-21T03:52:33.957Z,12.8
2023-03-21T03:53:51.002Z,12.8
2023-03-21T03:55:08.016Z,12.9
2023-03-21T03:56:25.008Z,12.9
2023-03-21T03:57:41.972Z,12.9
2023-03-21T03:58:59.005Z,13
2023-03-21T04:00:16.082Z,13.1
2023-03-21T04:01:33.017Z,13.1
2023-03-21T04:02:50.127Z,13.2
2023-03-21T04:04:13.150Z,13.2
2023-03-21T04:05:23.991Z,13.2
2023-03-21T04:06:40.974Z,13.2
2023-03-21T04:07:58.012Z,13.3
2023-03-21T04:09:20.886Z,13.1
2023-03-21T04:10:32.040Z,13
2023-03-21T04:11:48.994Z,12.9
2023-03-21T04:13:05.999Z,12.9
2023-03-21T04:14:23.267Z,12.8
2023-03-21T04:15:40.026Z,12.8
2023-03-21T04:16:56.997Z,12.7
2023-03-21T04:18:14.006Z,12.7
2023-03-21T04:19:31.363Z,12.7
2023-03-21T04:20:48.468Z,12.7
2023-03-21T04:22:05.009Z,12.7
2023-03-21T04:23:22.016Z,12.8
2023-03-21T04:24:39.045Z,12.9
2023-03-21T04:25:57.281Z,12.9
2023-03-21T04:27:13.035Z,12.9
2023-03-21T04:28:30.014Z,13
2023-03-21T04:29:47.036Z,13
2023-03-21T04:31:11.047Z,13
2023-03-21T04:32:21.044Z,13
2023-03-21T04:33:38.035Z,12.9
2023-03-21T04:34:55.030Z,12.8
2023-03-21T04:36:12.102Z,12.8
2023-03-21T04:37:29.065Z,12.8
2023-03-21T04:38:46.035Z,12.8
2023-03-21T04:40:03.067Z,12.8
2023-03-21T04:41:20.069Z,12.8
2023-03-21T04:42:37.095Z,12.8
2023-03-21T04:43:54.403Z,12.8
2023-03-21T04:45:11.081Z,12.8
2023-03-21T04:46:28.089Z,12.8
2023-03-21T04:47:45.090Z,12.8
2023-03-21T04:49:02.046Z,12.7
2023-03-21T04:50:19.051Z,12.7
2023-03-21T04:51:36.089Z,12.6
2023-03-21T04:52:53.084Z,12.6
2023-03-21T04:54:10.052Z,12.6
2023-03-21T04:55:27.070Z,12.5
2023-03-21T04:56:44.068Z,12.5
2023-03-21T04:58:01.128Z,12.3
2023-03-21T04:59:18.061Z,12.3
2023-03-21T05:00:35.151Z,12.3
2023-03-21T05:01:53.056Z,12.2
2023-03-21T05:03:10.118Z,12.1
2023-03-21T05:04:27.093Z,12.1
2023-03-21T05:05:44.074Z,12.2
2023-03-21T05:07:01.090Z,12.2
2023-03-21T05:08:18.136Z,12.4
2023-03-21T05:09:35.076Z,12.5
2023-03-21T05:10:52.084Z,12.6
2023-03-21T05:12:09.059Z,12.7
2023-03-21T05:13:26.128Z,12.8
2023-03-21T05:14:43.071Z,12.9
2023-03-21T05:16:00.108Z,12.9
2023-03-21T05:17:17.743Z,13
2023-03-21T05:18:35.133Z,13
2023-03-21T05:19:52.086Z,13.1
2023-03-21T05:21:09.085Z,13.1
2023-03-21T05:22:26.097Z,13.1
2023-03-21T05:23:43.121Z,13.1
2023-03-21T05:25:00.095Z,13.2
2023-03-21T05:26:17.094Z,13.1
2023-03-21T05:27:34.131Z,13.1
2023-03-21T05:28:51.096Z,13.1
2023-03-21T05:30:08.202Z,13
2023-03-21T05:31:25.216Z,12.9
2023-03-21T05:32:42.138Z,12.8
2023-03-21T05:33:59.099Z,12.7
2023-03-21T05:35:16.112Z,12.7
2023-03-21T05:36:33.101Z,12.8
2023-03-21T05:37:50.196Z,12.9
2023-03-21T05:39:07.128Z,13
2023-03-21T05:40:24.126Z,13
2023-03-21T05:41:41.121Z,13
2023-03-21T05:42:58.205Z,13
2023-03-21T05:44:15.143Z,12.9
2023-03-21T05:45:32.118Z,12.8
2023-03-21T05:46:49.153Z,12.8
2023-03-21T05:48:06.181Z,12.8
2023-03-21T05:49:23.116Z,12.7
2023-03-21T05:50:40.162Z,12.7
2023-03-21T05:51:57.157Z,12.7
2023-03-21T05:53:14.236Z,12.6
2023-03-21T05:54:31.133Z,12.6
2023-03-21T05:55:48.134Z,12.7
2023-03-21T05:57:05.140Z,12.7
2023-03-21T05:58:22.167Z,12.7
2023-03-21T05:59:39.143Z,12.7
2023-03-21T06:00:56.153Z,12.8
2023-03-21T06:02:13.246Z,12.9
2023-03-21T06:03:30.238Z,13
2023-03-21T06:04:47.150Z,13
2023-03-21T06:06:04.180Z,13
2023-03-21T06:07:21.177Z,13
2023-03-21T06:08:38.185Z,13.2
2023-03-21T06:09:55.182Z,13.2
2023-03-21T06:11:12.177Z,13.1
2023-03-21T06:12:29.180Z,13
2023-03-21T06:13:46.177Z,13.1
2023-03-21T06:15:03.456Z,13
2023-03-21T06:16:20.225Z,13
2023-03-21T06:17:37.232Z,13
2023-03-21T06:18:54.221Z,12.9
2023-03-21T06:20:11.232Z,13
2023-03-21T06:21:28.178Z,13.1
2023-03-21T06:22:45.449Z,13.1
2023-03-21T06:24:02.280Z,13
2023-03-21T06:25:19.179Z,12.9
2023-03-21T06:26:36.206Z,12.9
2023-03-21T06:27:53.178Z,12.8
2023-03-21T06:29:10.429Z,12.8
2023-03-21T06:30:27.215Z,12.7
2023-03-21T06:31:44.227Z,12.7
2023-03-21T06:33:01.234Z,12.8
2023-03-21T06:34:18.214Z,12.7
2023-03-21T06:35:35.469Z,12.7
2023-03-21T06:36:52.233Z,12.7
2023-03-21T06:38:09.262Z,12.7
2023-03-21T06:39:26.196Z,12.8
2023-03-21T06:40:43.202Z,12.9
2023-03-21T06:42:00.247Z,13.1
2023-03-21T06:43:17.250Z,13.1
2023-03-21T06:44:34.223Z,13.2
2023-03-21T06:45:51.203Z,13.3
2023-03-21T06:47:08.240Z,13.3
2023-03-21T06:48:25.316Z,13.3
2023-03-21T06:49:42.228Z,13.4
2023-03-21T06:50:59.221Z,13.5
2023-03-21T06:52:16.227Z,13.5
2023-03-21T06:53:35.115Z,13.6
2023-03-21T06:54:50.256Z,13.5
2023-03-21T06:56:07.223Z,13.6
2023-03-21T06:57:24.317Z,13.6
2023-03-21T06:58:41.296Z,13.7
2023-03-21T06:59:58.238Z,13.7
2023-03-21T07:01:15.362Z,13.7
2023-03-21T07:02:32.273Z,13.7
2023-03-21T07:03:49.285Z,13.6
2023-03-21T07:05:06.269Z,13.4
2023-03-21T07:06:23.234Z,13.4
2023-03-21T07:07:40.236Z,13.5
2023-03-21T07:08:57.315Z,13.5
2023-03-21T07:10:14.255Z,13.6
2023-03-21T07:11:31.254Z,13.6
2023-03-21T07:12:48.249Z,13.6
2023-03-21T07:14:05.272Z,13.5
2023-03-21T07:15:22.265Z,13.5
2023-03-21T07:16:39.337Z,13.4
2023-03-21T07:17:56.245Z,13.2
2023-03-21T07:19:13.840Z,13.1
2023-03-21T07:20:30.332Z,13
2023-03-21T07:21:47.271Z,13
2023-03-21T07:23:04.286Z,12.9
2023-03-21T07:24:21.327Z,12.9
2023-03-21T07:25:38.585Z,13
2023-03-21T07:26:55.268Z,13
2023-03-21T07:28:12.268Z,13.1
2023-03-21T07:29:29.303Z,13
2023-03-21T07:30:46.266Z,13.1
2023-03-21T07:32:03.360Z,13.1
2023-03-21T07:33:20.289Z,13.3
2023-03-21T07:34:37.335Z,13.3
2023-03-21T07:35:54.337Z,13.3
2023-03-21T07:37:11.324Z,13.2
2023-03-21T07:38:28.289Z,13.3
2023-03-21T07:39:45.324Z,13.4
2023-03-21T07:41:02.290Z,13.6
2023-03-21T07:42:19.332Z,13.7
2023-03-21T07:43:36.460Z,13.8
2023-03-21T07:44:53.326Z,13.8
2023-03-21T07:46:10.306Z,13.6
2023-03-21T07:47:27.353Z,13.7
2023-03-21T07:48:44.304Z,13.7
2023-03-21T07:50:01.373Z,13.8
2023-03-21T07:51:18.323Z,13.8
2023-03-21T07:52:35.337Z,13.9
2023-03-21T07:53:52.310Z,14.1
2023-03-21T07:55:09.338Z,14.2
2023-03-21T07:56:26.321Z,14.1
2023-03-21T07:57:43.310Z,14
2023-03-21T07:59:00.314Z,13.9
2023-03-21T08:00:17.392Z,13.7
2023-03-21T08:01:34.319Z,13.4
2023-03-21T08:02:51.319Z,13.2
2023-03-21T08:04:08.326Z,13.2
2023-03-21T08:05:25.631Z,13.2
2023-03-21T08:06:42.321Z,13.2
2023-03-21T08:07:59.344Z,13.4
2023-03-21T08:09:16.391Z,13.5
2023-03-21T08:10:33.356Z,13.6
2023-03-21T08:11:50.372Z,13.5
2023-03-21T08:13:07.350Z,13.5
2023-03-21T08:14:24.338Z,13.6
2023-03-21T08:15:41.379Z,13.7
2023-03-21T08:16:58.386Z,13.7
2023-03-21T08:18:15.353Z,13.5
2023-03-21T08:19:32.353Z,13.4
2023-03-21T08:20:49.361Z,13.3
2023-03-21T08:22:06.378Z,13.2
2023-03-21T08:23:23.409Z,13.2
2023-03-21T08:24:40.355Z,13.1
2023-03-21T08:25:57.422Z,13.3
2023-03-21T08:27:14.359Z,13.4
2023-03-21T08:28:31.370Z,13.6
2023-03-21T08:29:48.370Z,13.8
2023-03-21T08:31:05.458Z,13.9
2023-03-21T08:32:22.360Z,13.6
2023-03-21T08:33:39.359Z,13.4
2023-03-21T08:34:56.361Z,13.3
2023-03-21T08:36:13.634Z,13.3
2023-03-21T08:37:31.469Z,13.3
2023-03-21T08:38:48.487Z,13.3
2023-03-21T08:40:06.440Z,13.3
2023-03-21T08:41:24.500Z,13.4
2023-03-21T08:42:42.409Z,13.5
2023-03-21T08:43:59.427Z,13.7
2023-03-21T08:45:16.430Z,13.9
2023-03-21T08:46:33.421Z,13.9
2023-03-21T08:47:50.468Z,13.8
2023-03-21T08:49:07.461Z,13.8
2023-03-21T08:50:24.388Z,13.9
2023-03-21T08:51:41.456Z,14
2023-03-21T08:52:58.435Z,13.9
2023-03-21T08:54:15.457Z,13.9
2023-03-21T08:55:32.402Z,13.9
2023-03-21T08:56:49.568Z,13.8
2023-03-21T08:58:06.488Z,13.7
2023-03-21T08:59:23.428Z,13.5
2023-03-21T09:00:40.415Z,13.6
2023-03-21T09:01:57.486Z,13.7
2023-03-21T09:03:14.407Z,13.8
2023-03-21T09:04:31.544Z,13.9
2023-03-21T09:05:48.402Z,14.1
2023-03-21T09:07:05.443Z,14.2
2023-03-21T09:08:22.432Z,14.3
2023-03-21T09:09:39.446Z,14.6
2023-03-21T09:10:56.498Z,14.6
2023-03-21T09:12:13.414Z,14.7
2023-03-21T09:13:30.417Z,14.5
2023-03-21T09:14:47.444Z,14.4
2023-03-21T09:16:04.523Z,14.5
2023-03-21T09:17:21.455Z,14.6
2023-03-21T09:18:38.426Z,14.8
2023-03-21T09:19:55.436Z,15
2023-03-21T09:21:12.459Z,15.1
2023-03-21T09:22:29.522Z,15.2
2023-03-21T09:23:46.478Z,15.2
2023-03-21T09:25:03.453Z,15.3
2023-03-21T09:26:20.459Z,15.4
2023-03-21T09:27:37.513Z,15.6
2023-03-21T09:28:54.438Z,16.1
2023-03-21T09:30:11.462Z,16.4
2023-03-21T09:31:28.611Z,16.8
2023-03-21T09:32:45.489Z,17.2
2023-03-21T09:34:02.540Z,17.5
2023-03-21T09:35:19.459Z,17.7
2023-03-21T09:36:36.448Z,17.6
2023-03-21T09:37:53.562Z,17.5
2023-03-21T09:39:10.456Z,17.4
2023-03-21T09:40:27.525Z,17.2
2023-03-21T09:41:44.464Z,16.9
2023-03-21T09:43:01.581Z,16.6
2023-03-21T09:44:18.478Z,16.4
2023-03-21T09:45:35.683Z,16.1
2023-03-21T09:46:52.531Z,16.2
2023-03-21T09:48:09.575Z,16.5
2023-03-21T09:49:26.520Z,16.8
2023-03-21T09:50:43.487Z,16.8
2023-03-21T09:52:00.517Z,16.8
2023-03-21T09:53:17.545Z,16.6
2023-03-21T09:54:34.519Z,16.4
2023-03-21T09:55:51.552Z,16.3
2023-03-21T09:57:08.515Z,16.3
2023-03-21T09:58:25.487Z,16.4
2023-03-21T09:59:42.514Z,16.5
2023-03-21T10:00:59.572Z,16.4
2023-03-21T10:02:16.492Z,16.2
2023-03-21T10:03:33.604Z,16.2
2023-03-21T10:04:50.541Z,16.1
2023-03-21T10:06:07.506Z,16.1
2023-03-21T10:07:24.536Z,16.4
2023-03-21T10:08:41.536Z,16.7
2023-03-21T10:09:58.511Z,16.7
2023-03-21T10:11:15.541Z,16.6
2023-03-21T10:12:32.540Z,16.5
2023-03-21T10:13:49.549Z,16.5
2023-03-21T10:15:06.529Z,16.2
2023-03-21T10:16:23.527Z,15.9
2023-03-21T10:17:40.516Z,15.7
2023-03-21T10:18:57.563Z,15.7
2023-03-21T10:20:14.529Z,15.9
2023-03-21T10:21:56.878Z,16.2
2023-03-21T10:22:48.544Z,16.5
2023-03-21T10:24:05.605Z,16.6
2023-03-21T10:25:22.517Z,16.5
2023-03-21T10:26:39.525Z,16.4
2023-03-21T10:27:56.583Z,16.2
2023-03-21T10:29:13.691Z,16.2
2023-03-21T10:30:30.538Z,16
2023-03-21T10:31:47.583Z,15.9
2023-03-21T10:33:04.583Z,15.9
2023-03-21T10:34:21.560Z,15.9
2023-03-21T10:35:38.816Z,15.8
2023-03-21T10:36:55.590Z,15.7
2023-03-21T10:38:12.548Z,15.8
2023-03-21T10:39:29.604Z,16
2023-03-21T10:40:46.557Z,16
2023-03-21T10:42:03.620Z,15.9
2023-03-21T10:43:20.607Z,16
2023-03-21T10:44:37.648Z,16.2
2023-03-21T10:45:54.875Z,16.6
2023-03-21T10:47:11.720Z,16.9
2023-03-21T10:48:28.715Z,17.1
2023-03-21T10:50:06.105Z,17.2
2023-03-21T10:51:02.600Z,17.3
2023-03-21T10:52:19.575Z,17.3
2023-03-21T10:53:36.565Z,17.1
2023-03-21T10:54:53.639Z,17
2023-03-21T10:56:10.591Z,17.4
2023-03-21T10:57:27.586Z,17.5
2023-03-21T10:58:44.576Z,17.5
2023-03-21T11:00:01.665Z,17.5
2023-03-21T11:01:19.061Z,17.6
2023-03-21T11:02:35.597Z,17.7
2023-03-21T11:03:52.591Z,17.6
2023-03-21T11:05:09.621Z,17.6
2023-03-21T11:06:26.583Z,17.7
2023-03-21T11:07:43.594Z,17.8
2023-03-21T11:09:00.640Z,17.8
2023-03-21T11:10:27.971Z,17.6
2023-03-21T11:11:34.588Z,17.4
2023-03-21T11:12:51.610Z,17.3
2023-03-21T11:14:08.665Z,17.2
2023-03-21T11:15:25.619Z,17
2023-03-21T11:16:42.702Z,16.9
2023-03-21T11:17:59.601Z,17
2023-03-21T11:19:16.678Z,17
2023-03-21T11:20:33.622Z,17
2023-03-21T11:21:50.621Z,16.8
2023-03-21T11:23:07.688Z,16.5
2023-03-21T11:24:24.664Z,16.1
2023-03-21T11:25:41.812Z,15.8
2023-03-21T11:26:58.635Z,15.6
2023-03-21T11:28:15.639Z,15.6
2023-03-21T11:29:32.623Z,15.8
2023-03-21T11:30:49.792Z,15.9
2023-03-21T11:32:06.651Z,16
2023-03-21T11:33:23.634Z,16
2023-03-21T11:34:40.647Z,15.9
2023-03-21T11:35:58.063Z,15.7
2023-03-21T11:37:14.645Z,15.8
2023-03-21T11:38:31.626Z,15.9
2023-03-21T11:39:48.642Z,16.2
2023-03-21T11:41:05.692Z,16.2
2023-03-21T11:42:22.638Z,16.3
2023-03-21T11:43:39.676Z,16.2
2023-03-21T11:44:56.648Z,16
2023-03-21T11:46:13.808Z,15.9
2023-03-21T11:47:30.663Z,15.8
2023-03-21T11:48:47.670Z,15.5
2023-03-21T11:50:05.548Z,15.5
2023-03-21T11:51:21.709Z,15.5
2023-03-21T11:52:38.703Z,15.6
2023-03-21T11:53:55.668Z,15.6
2023-03-21T11:55:12.696Z,15.6
2023-03-21T11:56:29.747Z,15.6
2023-03-21T11:57:46.676Z,15.5
2023-03-21T11:59:03.754Z,15.5
2023-03-21T12:00:20.690Z,15.5
2023-03-21T12:01:37.715Z,15.6
2023-03-21T12:02:54.719Z,15.6
2023-03-21T12:04:11.725Z,15.6
2023-03-21T12:05:28.690Z,15.6
2023-03-21T12:06:45.709Z,15.6
2023-03-21T12:08:02.686Z,15.5
2023-03-21T12:09:19.684Z,15.4
2023-03-21T12:10:36.696Z,15.4
2023-03-21T12:11:53.743Z,15.6
2023-03-21T12:13:10.690Z,15.8
2023-03-21T12:14:27.698Z,15.7
2023-03-21T12:15:44.823Z,15.5
2023-03-21T12:17:01.767Z,15.4
2023-03-21T12:18:18.712Z,15.2
2023-03-21T12:19:35.705Z,15.2
2023-03-21T12:20:52.706Z,15.2
2023-03-21T12:22:09.728Z,15.1
2023-03-21T12:23:26.745Z,15
2023-03-21T12:24:43.712Z,14.9
2023-03-21T12:26:00.720Z,14.8
2023-03-21T12:27:17.786Z,15
2023-03-21T12:28:34.720Z,15.1
2023-03-21T12:29:51.727Z,15.2
2023-03-21T12:31:08.784Z,15.4
2023-03-21T12:32:25.744Z,15.5
2023-03-21T12:33:42.727Z,15.4
2023-03-21T12:34:59.725Z,15.4
2023-03-21T12:36:19.942Z,15.6
2023-03-21T12:37:36.752Z,15.9
2023-03-21T12:38:53.728Z,15.9
2023-03-21T12:40:10.739Z,15.8
2023-03-21T12:41:27.719Z,15.7
2023-03-21T12:42:44.900Z,15.8
2023-03-21T12:44:01.738Z,15.8
2023-03-21T12:45:18.741Z,15.9
2023-03-21T12:46:35.853Z,15.8
2023-03-21T12:47:52.840Z,15.8
2023-03-21T12:49:09.798Z,15.8
2023-03-21T12:50:26.979Z,15.9
2023-03-21T12:51:43.799Z,16.1
2023-03-21T12:53:00.960Z,16.3
2023-03-21T12:54:17.786Z,16.6
2023-03-21T12:55:34.757Z,16.8
2023-03-21T12:56:51.757Z,17
2023-03-21T12:58:09.030Z,17
2023-03-21T12:59:25.825Z,17
2023-03-21T13:00:43.170Z,17
2023-03-21T13:01:59.760Z,16.8
2023-03-21T13:03:17.331Z,16.7
2023-03-21T13:04:33.853Z,16.5
2023-03-21T13:05:51.032Z,16.5
2023-03-21T13:07:07.757Z,16.5
2023-03-21T13:08:24.753Z,16.2
2023-03-21T13:09:41.885Z,15.9
2023-03-21T13:11:00.850Z,15.8
2023-03-21T13:12:15.775Z,15.9
2023-03-21T13:13:32.897Z,15.9
2023-03-21T13:14:49.809Z,15.9
2023-03-21T13:16:06.827Z,16
2023-03-21T13:17:23.839Z,16
2023-03-21T13:18:40.845Z,15.9
2023-03-21T13:19:57.803Z,15.8
2023-03-21T13:21:15.967Z,15.8
2023-03-21T13:22:33.930Z,16
2023-03-21T13:23:50.778Z,16.2
2023-03-21T13:25:07.800Z,16.3
2023-03-21T13:26:24.788Z,16.4
2023-03-21T13:27:41.831Z,16.4
2023-03-21T13:29:00.553Z,16.5
2023-03-21T13:30:16.433Z,16.6
2023-03-21T13:31:45.339Z,16.6
2023-03-21T13:32:50.858Z,16.6
2023-03-21T13:34:07.801Z,16.6
2023-03-21T13:35:25.058Z,16.7
2023-03-21T13:36:41.816Z,16.7
2023-03-21T13:37:58.863Z,16.8
2023-03-21T13:39:15.825Z,17.1
2023-03-21T13:40:32.875Z,17.3
2023-03-21T13:41:49.858Z,17.4
2023-03-21T13:43:07.396Z,17.4
2023-03-21T13:44:24.058Z,17.2
2023-03-21T13:45:41.214Z,17
2023-03-21T13:46:57.921Z,17
2023-03-21T13:48:14.928Z,17.1
2023-03-21T13:49:32.043Z,17.3
2023-03-21T13:50:50.352Z,17.3
2023-03-21T13:52:08.160Z,17.4
2023-03-21T13:53:26.841Z,17.6
2023-03-21T13:54:43.821Z,17.9
2023-03-21T13:56:00.866Z,17.8
2023-03-21T13:57:17.942Z,17.9
2023-03-21T13:58:34.848Z,17.6
2023-03-21T13:59:51.970Z,17.4
2023-03-21T14:01:09.192Z,17.3
2023-03-21T14:02:26.156Z,17.1
2023-03-21T14:03:42.841Z,17.1
2023-03-21T14:05:06.927Z,17.2
2023-03-21T14:06:16.940Z,17.2
2023-03-21T14:07:34.093Z,17.1
2023-03-21T14:08:51.230Z,17.1
2023-03-21T14:10:08.167Z,17.2
2023-03-21T14:11:24.848Z,17.2
2023-03-21T14:12:42.013Z,17.1
2023-03-21T14:13:58.927Z,16.9
2023-03-21T14:15:17.060Z,16.8
2023-03-21T14:16:32.860Z,17
2023-03-21T14:17:50.007Z,17.3
2023-03-21T14:19:06.989Z,17.3
2023-03-21T14:20:23.885Z,17.1
2023-03-21T14:21:40.898Z,16.9
2023-03-21T14:22:57.892Z,16.7
2023-03-21T14:24:14.924Z,16.5
2023-03-21T14:25:37.111Z,16.5
2023-03-21T14:26:48.894Z,16.5
2023-03-21T14:28:05.886Z,16.5
2023-03-21T14:29:26.349Z,16.7
2023-03-21T14:30:40.197Z,16.9
2023-03-21T14:31:56.965Z,17
2023-03-21T14:33:13.901Z,17.1
2023-03-21T14:34:30.906Z,17.1
2023-03-21T14:35:47.955Z,17
2023-03-21T14:37:04.948Z,16.9
2023-03-21T14:38:21.901Z,16.7
2023-03-21T14:39:38.910Z,16.5
2023-03-21T14:40:55.913Z,16.3
2023-03-21T14:42:12.980Z,16.2
2023-03-21T14:43:29.911Z,16.1
2023-03-21T14:44:54.737Z,16.2
2023-03-21T14:46:04.115Z,16.3
2023-03-21T14:47:20.978Z,16.6
2023-03-21T14:48:38.125Z,16.9
2023-03-21T14:49:56.125Z,17
2023-03-21T14:51:13.348Z,17
2023-03-21T14:52:31.146Z,17.1
2023-03-21T14:53:48.116Z,17.3
2023-03-21T14:55:05.372Z,17.3
2023-03-21T14:56:23.260Z,17.1
2023-03-21T14:57:41.173Z,16.9
2023-03-21T14:58:58.300Z,16.8
2023-03-21T15:00:16.195Z,16.7
2023-03-21T15:01:34.281Z,16.6
2023-03-21T15:02:52.512Z,16.5
2023-03-21T15:04:10.342Z,16.5
2023-03-21T15:05:28.295Z,16.5
2023-03-21T15:06:46.083Z,16.5
2023-03-21T15:08:04.231Z,16.5
2023-03-21T15:09:22.365Z,16.5
2023-03-21T15:10:40.091Z,16.5
2023-03-21T15:11:59.198Z,16.4
2023-03-21T15:13:17.102Z,16.6
2023-03-21T15:14:34.137Z,16.7
2023-03-21T15:15:52.256Z,16.8
2023-03-21T15:17:09.235Z,16.7
2023-03-21T15:18:27.237Z,16.5
2023-03-21T15:19:45.237Z,16.6
2023-03-21T15:21:04.205Z,16.5
2023-03-21T15:22:22.223Z,16.4
2023-03-21T15:23:40.139Z,16.3
2023-03-21T15:24:57.315Z,16.2
2023-03-21T15:26:15.125Z,16.3
2023-03-21T15:27:32.244Z,16.4
2023-03-21T15:28:50.231Z,16.4
2023-03-21T15:30:08.614Z,16.6
2023-03-21T15:31:26.294Z,16.7
2023-03-21T15:32:45.611Z,16.7
2023-03-21T15:34:02.103Z,16.6
2023-03-21T15:35:19.249Z,16.5
2023-03-21T15:36:36.138Z,16.4
2023-03-21T15:37:53.620Z,16.5
2023-03-21T15:39:14.207Z,16.7
2023-03-21T15:40:31.202Z,16.7
2023-03-21T15:41:48.212Z,16.7
2023-03-21T15:43:06.290Z,16.7
2023-03-21T15:44:24.189Z,16.8
2023-03-21T15:45:41.176Z,16.9
2023-03-21T15:46:59.108Z,16.9
2023-03-21T15:48:16.787Z,16.9
2023-03-21T15:49:37.134Z,17
2023-03-21T15:50:54.154Z,17.1
2023-03-21T15:52:11.163Z,17.1
2023-03-21T15:53:28.211Z,17.1
2023-03-21T15:54:45.128Z,17.2
2023-03-21T15:56:02.246Z,17.1
2023-03-21T15:57:19.456Z,16.7
2023-03-21T15:58:37.303Z,16.5
2023-03-21T15:59:55.330Z,16.3
2023-03-21T16:01:13.406Z,16
2023-03-21T16:02:31.168Z,16
2023-03-21T16:03:48.428Z,16
2023-03-21T16:05:06.319Z,16
2023-03-21T16:06:24.381Z,16.1
2023-03-21T16:07:42.205Z,16.2
2023-03-21T16:08:59.204Z,16.2
2023-03-21T16:10:17.183Z,16.3
2023-03-21T16:11:34.208Z,16.5
2023-03-21T16:12:51.263Z,16.6
2023-03-21T16:14:08.252Z,16.7
2023-03-21T16:15:25.246Z,16.7
2023-03-21T16:16:43.252Z,16.5
2023-03-21T16:18:00.208Z,16.6
2023-03-21T16:19:17.189Z,16.7
2023-03-21T16:20:34.312Z,16.8
2023-03-21T16:21:51.196Z,16.9
2023-03-21T16:23:08.319Z,16.9
2023-03-21T16:24:26.288Z,17
2023-03-21T16:25:43.204Z,17
2023-03-21T16:27:00.278Z,17.1
2023-03-21T16:28:18.107Z,17.1
2023-03-21T16:29:35.418Z,17.2
2023-03-21T16:30:53.245Z,17.2
2023-03-21T16:32:10.263Z,17.3
2023-03-21T16:33:28.157Z,17.3
2023-03-21T16:34:45.340Z,17.4
2023-03-21T16:36:03.399Z,17.5
2023-03-21T16:37:21.164Z,17.5
2023-03-21T16:38:38.511Z,17.6
2023-03-21T16:39:56.393Z,17.6
2023-03-21T16:41:14.556Z,17.7
2023-03-21T16:42:32.242Z,17.7
2023-03-21T16:43:50.249Z,17.6
2023-03-21T16:45:08.354Z,17.6
2023-03-21T16:46:26.376Z,17.5
2023-03-21T16:47:43.234Z,17.4
2023-03-21T16:49:00.221Z,17.4
2023-03-21T16:50:18.946Z,17.3
2023-03-21T16:51:36.231Z,17.2
2023-03-21T16:52:53.431Z,17.1
2023-03-21T16:54:11.402Z,17
2023-03-21T16:55:29.391Z,16.9
2023-03-21T16:56:47.261Z,16.9
2023-03-21T16:58:04.220Z,16.9
2023-03-21T16:59:21.390Z,16.8
2023-03-21T17:00:38.526Z,16.6
2023-03-21T17:01:56.481Z,16.5
2023-03-21T17:03:14.529Z,16.3
2023-03-21T17:04:32.482Z,16.2
2023-03-21T17:05:50.397Z,16.2
2023-03-21T17:07:08.247Z,16.2
2023-03-21T17:08:26.200Z,16.2
2023-03-21T17:09:43.356Z,16.3
2023-03-21T17:11:02.765Z,16.4
2023-03-21T17:12:19.249Z,16.5
2023-03-21T17:13:37.361Z,16.4